sensor_id;sensor_type;location;lat;lon;timestamp;P1;durP1;ratioP1;P2;durP2;ratioP2
10882;SDS011;5494;51.796;10.952;2022-10-31T00:01:37;5.83;;;3.20;;
10882;SDS011;5494;51.796;10.952;2022-10-31T00:04:07;6.90;;;3.67;;
10882;SDS011;5494;51.796;10.952;2022-10-31T00:06:37;6.87;;;3.00;;
10882;SDS011;5494;51.796;10.952;2022-10-31T00:09:06;6.03;;;3.50;;
10882;SDS011;5494;51.796;10.952;2022-10-31T00:11:34;8.13;;;3.83;;
10882;SDS011;5494;51.796;10.952;2022-10-31T00:14:03;8.97;;;4.13;;
10882;SDS011;5494;51.796;10.952;2022-10-31T00:16:31;7.03;;;3.47;;
10882;SDS011;5494;51.796;10.952;2022-10-31T00:19:01;9.17;;;3.23;;
10882;SDS011;5494;51.796;10.952;2022-10-31T00:21:34;6.50;;;3.80;;
10882;SDS011;5494;51.796;10.952;2022-10-31T00:24:05;6.50;;;3.70;;
10882;SDS011;5494;51.796;10.952;2022-10-31T00:26:33;8.27;;;4.10;;
10882;SDS011;5494;51.796;10.952;2022-10-31T00:29:02;6.07;;;3.70;;
10882;SDS011;5494;51.796;10.952;2022-10-31T00:31:32;6.00;;;3.60;;
10882;SDS011;5494;51.796;10.952;2022-10-31T00:34:00;8.73;;;3.60;;
10882;SDS011;5494;51.796;10.952;2022-10-31T00:36:30;7.33;;;3.67;;
10882;SDS011;5494;51.796;10.952;2022-10-31T00:38:59;5.63;;;3.60;;
10882;SDS011;5494;51.796;10.952;2022-10-31T00:41:29;8.27;;;3.70;;
10882;SDS011;5494;51.796;10.952;2022-10-31T00:43:58;6.97;;;3.73;;
10882;SDS011;5494;51.796;10.952;2022-10-31T00:46:27;5.73;;;3.03;;
10882;SDS011;5494;51.796;10.952;2022-10-31T00:48:56;5.50;;;3.47;;
10882;SDS011;5494;51.796;10.952;2022-10-31T00:51:25;5.00;;;3.40;;
10882;SDS011;5494;51.796;10.952;2022-10-31T00:53:53;7.90;;;3.97;;
10882;SDS011;5494;51.796;10.952;2022-10-31T00:56:22;6.60;;;3.80;;
10882;SDS011;5494;51.796;10.952;2022-10-31T00:58:52;7.67;;;3.80;;
10882;SDS011;5494;51.796;10.952;2022-10-31T01:01:21;5.67;;;3.50;;
10882;SDS011;5494;51.796;10.952;2022-10-31T01:03:50;4.97;;;3.40;;
10882;SDS011;5494;51.796;10.952;2022-10-31T01:06:19;5.90;;;4.00;;
10882;SDS011;5494;51.796;10.952;2022-10-31T01:08:47;6.90;;;3.77;;
10882;SDS011;5494;51.796;10.952;2022-10-31T01:11:19;7.70;;;3.70;;
10882;SDS011;5494;51.796;10.952;2022-10-31T01:13:50;6.47;;;3.70;;
10882;SDS011;5494;51.796;10.952;2022-10-31T01:16:22;4.70;;;3.10;;
10882;SDS011;5494;51.796;10.952;2022-10-31T01:18:55;6.23;;;3.43;;
10882;SDS011;5494;51.796;10.952;2022-10-31T01:21:27;5.87;;;3.50;;
10882;SDS011;5494;51.796;10.952;2022-10-31T01:23:58;7.33;;;3.27;;
10882;SDS011;5494;51.796;10.952;2022-10-31T01:26:29;6.97;;;3.93;;
10882;SDS011;5494;51.796;10.952;2022-10-31T01:29:01;7.30;;;3.50;;
10882;SDS011;5494;51.796;10.952;2022-10-31T01:31:35;8.13;;;3.40;;
10882;SDS011;5494;51.796;10.952;2022-10-31T01:34:07;7.20;;;3.47;;
10882;SDS011;5494;51.796;10.952;2022-10-31T01:36:40;7.50;;;4.10;;
10882;SDS011;5494;51.796;10.952;2022-10-31T01:39:09;7.37;;;4.43;;
10882;SDS011;5494;51.796;10.952;2022-10-31T01:41:41;6.37;;;3.53;;
10882;SDS011;5494;51.796;10.952;2022-10-31T01:47:21;11.83;;;4.07;;
10882;SDS011;5494;51.796;10.952;2022-10-31T01:50:08;5.83;;;3.27;;
10882;SDS011;5494;51.796;10.952;2022-10-31T01:52:44;7.10;;;3.60;;
10882;SDS011;5494;51.796;10.952;2022-10-31T01:55:18;6.73;;;4.77;;
10882;SDS011;5494;51.796;10.952;2022-10-31T01:57:57;6.33;;;3.87;;
10882;SDS011;5494;51.796;10.952;2022-10-31T02:00:34;7.83;;;4.17;;
10882;SDS011;5494;51.796;10.952;2022-10-31T02:03:03;10.33;;;4.00;;
10882;SDS011;5494;51.796;10.952;2022-10-31T02:05:32;7.53;;;4.00;;
10882;SDS011;5494;51.796;10.952;2022-10-31T02:08:02;8.60;;;4.17;;
10882;SDS011;5494;51.796;10.952;2022-10-31T02:10:38;8.17;;;4.20;;
10882;SDS011;5494;51.796;10.952;2022-10-31T02:13:10;9.10;;;4.20;;
10882;SDS011;5494;51.796;10.952;2022-10-31T02:15:49;9.77;;;4.50;;
10882;SDS011;5494;51.796;10.952;2022-10-31T02:18:22;7.20;;;3.87;;
10882;SDS011;5494;51.796;10.952;2022-10-31T02:20:58;8.97;;;4.20;;
10882;SDS011;5494;51.796;10.952;2022-10-31T02:27:16;9.73;;;4.47;;
10882;SDS011;5494;51.796;10.952;2022-10-31T02:30:12;11.13;;;4.43;;
10882;SDS011;5494;51.796;10.952;2022-10-31T02:32:55;8.33;;;4.00;;
10882;SDS011;5494;51.796;10.952;2022-10-31T02:35:54;6.77;;;4.43;;
10882;SDS011;5494;51.796;10.952;2022-10-31T02:38:37;7.30;;;4.17;;
10882;SDS011;5494;51.796;10.952;2022-10-31T02:41:32;6.60;;;4.10;;
10882;SDS011;5494;51.796;10.952;2022-10-31T02:44:15;7.67;;;4.10;;
10882;SDS011;5494;51.796;10.952;2022-10-31T02:46:56;7.67;;;4.40;;
10882;SDS011;5494;51.796;10.952;2022-10-31T02:49:36;9.70;;;4.73;;
10882;SDS011;5494;51.796;10.952;2022-10-31T02:52:16;9.60;;;4.60;;
10882;SDS011;5494;51.796;10.952;2022-10-31T02:54:47;8.53;;;4.00;;
10882;SDS011;5494;51.796;10.952;2022-10-31T02:57:17;11.20;;;4.80;;
10882;SDS011;5494;51.796;10.952;2022-10-31T02:59:53;9.30;;;4.37;;
10882;SDS011;5494;51.796;10.952;2022-10-31T03:02:38;8.47;;;4.13;;
10882;SDS011;5494;51.796;10.952;2022-10-31T03:08:23;7.53;;;4.83;;
10882;SDS011;5494;51.796;10.952;2022-10-31T03:11:01;7.70;;;4.60;;
10882;SDS011;5494;51.796;10.952;2022-10-31T03:13:34;8.23;;;4.30;;
10882;SDS011;5494;51.796;10.952;2022-10-31T03:16:10;10.63;;;4.83;;
10882;SDS011;5494;51.796;10.952;2022-10-31T03:18:46;9.07;;;4.70;;
10882;SDS011;5494;51.796;10.952;2022-10-31T03:21:29;9.43;;;4.20;;
10882;SDS011;5494;51.796;10.952;2022-10-31T03:24:04;11.27;;;4.97;;
10882;SDS011;5494;51.796;10.952;2022-10-31T03:26:37;8.80;;;5.13;;
10882;SDS011;5494;51.796;10.952;2022-10-31T03:29:10;8.83;;;4.93;;
10882;SDS011;5494;51.796;10.952;2022-10-31T03:31:44;11.23;;;4.83;;
10882;SDS011;5494;51.796;10.952;2022-10-31T03:34:21;9.13;;;5.20;;
10882;SDS011;5494;51.796;10.952;2022-10-31T03:36:52;13.13;;;4.90;;
10882;SDS011;5494;51.796;10.952;2022-10-31T03:39:25;8.67;;;4.60;;
10882;SDS011;5494;51.796;10.952;2022-10-31T03:41:56;13.27;;;6.53;;
10882;SDS011;5494;51.796;10.952;2022-10-31T03:44:33;11.73;;;6.40;;
10882;SDS011;5494;51.796;10.952;2022-10-31T03:47:04;8.27;;;5.13;;
10882;SDS011;5494;51.796;10.952;2022-10-31T03:49:33;11.57;;;6.10;;
10882;SDS011;5494;51.796;10.952;2022-10-31T03:52:06;12.27;;;6.33;;
10882;SDS011;5494;51.796;10.952;2022-10-31T03:54:44;12.33;;;6.53;;
10882;SDS011;5494;51.796;10.952;2022-10-31T03:57:18;9.63;;;6.07;;
10882;SDS011;5494;51.796;10.952;2022-10-31T03:59:57;18.63;;;7.87;;
10882;SDS011;5494;51.796;10.952;2022-10-31T04:02:33;10.27;;;6.13;;
10882;SDS011;5494;51.796;10.952;2022-10-31T04:05:08;10.37;;;6.10;;
10882;SDS011;5494;51.796;10.952;2022-10-31T04:07:42;10.80;;;6.07;;
10882;SDS011;5494;51.796;10.952;2022-10-31T04:10:17;9.30;;;5.57;;
10882;SDS011;5494;51.796;10.952;2022-10-31T04:12:49;14.70;;;4.57;;
10882;SDS011;5494;51.796;10.952;2022-10-31T04:15:31;11.07;;;5.67;;
10882;SDS011;5494;51.796;10.952;2022-10-31T04:18:04;9.23;;;5.13;;
10882;SDS011;5494;51.796;10.952;2022-10-31T04:20:36;13.53;;;6.10;;
10882;SDS011;5494;51.796;10.952;2022-10-31T04:23:11;13.80;;;6.97;;
10882;SDS011;5494;51.796;10.952;2022-10-31T04:25:46;10.50;;;6.23;;
10882;SDS011;5494;51.796;10.952;2022-10-31T04:28:16;11.33;;;6.00;;
10882;SDS011;5494;51.796;10.952;2022-10-31T04:30:50;12.77;;;6.30;;
10882;SDS011;5494;51.796;10.952;2022-10-31T04:33:19;11.90;;;6.50;;
10882;SDS011;5494;51.796;10.952;2022-10-31T04:35:48;13.70;;;7.90;;
10882;SDS011;5494;51.796;10.952;2022-10-31T04:38:18;13.03;;;7.27;;
10882;SDS011;5494;51.796;10.952;2022-10-31T04:40:48;13.80;;;7.00;;
10882;SDS011;5494;51.796;10.952;2022-10-31T04:43:37;11.57;;;7.57;;
10882;SDS011;5494;51.796;10.952;2022-10-31T04:46:06;17.97;;;9.10;;
10882;SDS011;5494;51.796;10.952;2022-10-31T04:48:34;17.70;;;8.50;;
10882;SDS011;5494;51.796;10.952;2022-10-31T04:51:05;15.27;;;8.67;;
10882;SDS011;5494;51.796;10.952;2022-10-31T04:53:35;16.77;;;8.57;;
10882;SDS011;5494;51.796;10.952;2022-10-31T04:56:27;14.47;;;8.90;;
10882;SDS011;5494;51.796;10.952;2022-10-31T04:59:01;15.93;;;9.60;;
10882;SDS011;5494;51.796;10.952;2022-10-31T05:01:41;17.47;;;10.03;;
10882;SDS011;5494;51.796;10.952;2022-10-31T05:04:10;16.63;;;10.50;;
10882;SDS011;5494;51.796;10.952;2022-10-31T05:06:39;23.83;;;12.30;;
10882;SDS011;5494;51.796;10.952;2022-10-31T05:09:09;21.37;;;11.33;;
10882;SDS011;5494;51.796;10.952;2022-10-31T05:11:37;21.47;;;11.83;;
10882;SDS011;5494;51.796;10.952;2022-10-31T05:14:20;20.47;;;11.80;;
10882;SDS011;5494;51.796;10.952;2022-10-31T05:17:15;20.37;;;12.73;;
10882;SDS011;5494;51.796;10.952;2022-10-31T05:20:04;25.20;;;14.13;;
10882;SDS011;5494;51.796;10.952;2022-10-31T05:22:51;23.53;;;13.33;;
10882;SDS011;5494;51.796;10.952;2022-10-31T05:25:23;23.40;;;12.47;;
10882;SDS011;5494;51.796;10.952;2022-10-31T05:27:54;24.70;;;13.57;;
10882;SDS011;5494;51.796;10.952;2022-10-31T05:30:25;23.90;;;12.43;;
10882;SDS011;5494;51.796;10.952;2022-10-31T05:32:57;27.73;;;13.83;;
10882;SDS011;5494;51.796;10.952;2022-10-31T05:35:45;24.77;;;11.57;;
10882;SDS011;5494;51.796;10.952;2022-10-31T05:38:47;20.97;;;12.43;;
10882;SDS011;5494;51.796;10.952;2022-10-31T05:41:24;23.47;;;13.07;;
10882;SDS011;5494;51.796;10.952;2022-10-31T05:44:02;23.43;;;12.77;;
10882;SDS011;5494;51.796;10.952;2022-10-31T05:46:36;27.90;;;13.90;;
10882;SDS011;5494;51.796;10.952;2022-10-31T05:49:23;29.17;;;15.47;;
10882;SDS011;5494;51.796;10.952;2022-10-31T05:52:30;29.73;;;16.47;;
10882;SDS011;5494;51.796;10.952;2022-10-31T05:55:06;32.37;;;16.23;;
10882;SDS011;5494;51.796;10.952;2022-10-31T05:57:41;37.40;;;17.20;;
10882;SDS011;5494;51.796;10.952;2022-10-31T06:00:10;33.77;;;18.17;;
10882;SDS011;5494;51.796;10.952;2022-10-31T06:02:47;39.43;;;19.30;;
10882;SDS011;5494;51.796;10.952;2022-10-31T06:05:34;37.33;;;19.40;;
10882;SDS011;5494;51.796;10.952;2022-10-31T06:08:04;41.87;;;20.77;;
10882;SDS011;5494;51.796;10.952;2022-10-31T06:10:33;41.20;;;20.00;;
10882;SDS011;5494;51.796;10.952;2022-10-31T06:13:03;43.73;;;21.33;;
10882;SDS011;5494;51.796;10.952;2022-10-31T06:15:52;35.37;;;19.33;;
10882;SDS011;5494;51.796;10.952;2022-10-31T06:18:25;40.30;;;20.07;;
10882;SDS011;5494;51.796;10.952;2022-10-31T06:20:54;41.00;;;20.17;;
10882;SDS011;5494;51.796;10.952;2022-10-31T06:23:23;41.60;;;19.30;;
10882;SDS011;5494;51.796;10.952;2022-10-31T06:26:04;43.03;;;20.70;;
10882;SDS011;5494;51.796;10.952;2022-10-31T06:28:34;35.50;;;19.23;;
10882;SDS011;5494;51.796;10.952;2022-10-31T06:31:16;36.37;;;18.83;;
10882;SDS011;5494;51.796;10.952;2022-10-31T06:33:44;37.70;;;19.23;;
10882;SDS011;5494;51.796;10.952;2022-10-31T06:36:14;40.23;;;19.53;;
10882;SDS011;5494;51.796;10.952;2022-10-31T06:38:42;39.60;;;19.77;;
10882;SDS011;5494;51.796;10.952;2022-10-31T06:41:12;39.57;;;20.17;;
10882;SDS011;5494;51.796;10.952;2022-10-31T06:43:46;41.63;;;19.43;;
10882;SDS011;5494;51.796;10.952;2022-10-31T06:46:36;40.47;;;19.17;;
10882;SDS011;5494;51.796;10.952;2022-10-31T06:49:18;39.50;;;19.80;;
10882;SDS011;5494;51.796;10.952;2022-10-31T06:51:53;45.27;;;20.83;;
10882;SDS011;5494;51.796;10.952;2022-10-31T06:54:21;38.37;;;20.33;;
10882;SDS011;5494;51.796;10.952;2022-10-31T06:56:50;37.97;;;20.10;;
10882;SDS011;5494;51.796;10.952;2022-10-31T06:59:21;30.13;;;16.97;;
10882;SDS011;5494;51.796;10.952;2022-10-31T07:02:07;33.90;;;18.17;;
10882;SDS011;5494;51.796;10.952;2022-10-31T07:04:39;32.30;;;17.33;;
10882;SDS011;5494;51.796;10.952;2022-10-31T07:07:08;34.07;;;17.40;;
10882;SDS011;5494;51.796;10.952;2022-10-31T07:09:37;32.80;;;16.63;;
10882;SDS011;5494;51.796;10.952;2022-10-31T07:12:07;32.93;;;18.57;;
10882;SDS011;5494;51.796;10.952;2022-10-31T07:14:40;33.37;;;18.07;;
10882;SDS011;5494;51.796;10.952;2022-10-31T07:17:10;35.63;;;18.70;;
10882;SDS011;5494;51.796;10.952;2022-10-31T07:19:42;32.67;;;17.43;;
10882;SDS011;5494;51.796;10.952;2022-10-31T07:22:13;34.60;;;18.73;;
10882;SDS011;5494;51.796;10.952;2022-10-31T07:24:43;34.60;;;16.90;;
10882;SDS011;5494;51.796;10.952;2022-10-31T07:27:34;27.10;;;16.33;;
10882;SDS011;5494;51.796;10.952;2022-10-31T07:30:11;32.47;;;16.97;;
10882;SDS011;5494;51.796;10.952;2022-10-31T07:32:42;27.13;;;16.97;;
10882;SDS011;5494;51.796;10.952;2022-10-31T07:35:14;30.80;;;17.30;;
10882;SDS011;5494;51.796;10.952;2022-10-31T07:37:47;30.00;;;17.50;;
10882;SDS011;5494;51.796;10.952;2022-10-31T07:40:16;28.30;;;18.33;;
10882;SDS011;5494;51.796;10.952;2022-10-31T07:42:47;31.10;;;17.20;;
10882;SDS011;5494;51.796;10.952;2022-10-31T07:45:38;28.70;;;17.40;;
10882;SDS011;5494;51.796;10.952;2022-10-31T07:48:29;29.77;;;16.40;;
10882;SDS011;5494;51.796;10.952;2022-10-31T07:51:36;28.53;;;17.17;;
10882;SDS011;5494;51.796;10.952;2022-10-31T07:54:32;31.03;;;17.40;;
10882;SDS011;5494;51.796;10.952;2022-10-31T07:57:00;31.90;;;18.83;;
10882;SDS011;5494;51.796;10.952;2022-10-31T07:59:29;29.80;;;18.63;;
10882;SDS011;5494;51.796;10.952;2022-10-31T08:02:00;29.03;;;17.60;;
10882;SDS011;5494;51.796;10.952;2022-10-31T08:04:47;28.27;;;16.93;;
10882;SDS011;5494;51.796;10.952;2022-10-31T08:07:28;29.37;;;17.27;;
10882;SDS011;5494;51.796;10.952;2022-10-31T08:10:03;27.10;;;16.93;;
10882;SDS011;5494;51.796;10.952;2022-10-31T08:12:34;25.47;;;15.67;;
10882;SDS011;5494;51.796;10.952;2022-10-31T08:15:07;27.67;;;17.00;;
10882;SDS011;5494;51.796;10.952;2022-10-31T08:17:38;29.70;;;17.43;;
10882;SDS011;5494;51.796;10.952;2022-10-31T08:20:09;26.20;;;15.73;;
10882;SDS011;5494;51.796;10.952;2022-10-31T08:22:51;27.47;;;17.10;;
10882;SDS011;5494;51.796;10.952;2022-10-31T08:25:21;24.83;;;15.87;;
10882;SDS011;5494;51.796;10.952;2022-10-31T08:27:52;24.33;;;14.90;;
10882;SDS011;5494;51.796;10.952;2022-10-31T08:30:25;21.90;;;14.70;;
10882;SDS011;5494;51.796;10.952;2022-10-31T08:33:16;23.63;;;15.10;;
10882;SDS011;5494;51.796;10.952;2022-10-31T08:36:04;28.10;;;15.30;;
10882;SDS011;5494;51.796;10.952;2022-10-31T08:38:54;26.03;;;16.27;;
10882;SDS011;5494;51.796;10.952;2022-10-31T08:41:28;26.40;;;15.67;;
10882;SDS011;5494;51.796;10.952;2022-10-31T08:43:59;22.17;;;14.33;;
10882;SDS011;5494;51.796;10.952;2022-10-31T08:46:28;22.33;;;14.83;;
10882;SDS011;5494;51.796;10.952;2022-10-31T08:48:59;24.37;;;14.80;;
10882;SDS011;5494;51.796;10.952;2022-10-31T08:51:27;22.77;;;15.00;;
10882;SDS011;5494;51.796;10.952;2022-10-31T08:53:56;21.97;;;14.93;;
10882;SDS011;5494;51.796;10.952;2022-10-31T08:56:44;23.90;;;15.03;;
10882;SDS011;5494;51.796;10.952;2022-10-31T08:59:29;22.67;;;14.87;;
10882;SDS011;5494;51.796;10.952;2022-10-31T09:02:17;21.63;;;14.97;;
10882;SDS011;5494;51.796;10.952;2022-10-31T09:04:50;26.53;;;14.40;;
10882;SDS011;5494;51.796;10.952;2022-10-31T09:07:18;26.83;;;15.07;;
10882;SDS011;5494;51.796;10.952;2022-10-31T09:09:47;23.93;;;14.27;;
10882;SDS011;5494;51.796;10.952;2022-10-31T09:12:18;19.80;;;13.03;;
10882;SDS011;5494;51.796;10.952;2022-10-31T09:15:26;16.80;;;9.90;;
10882;SDS011;5494;51.796;10.952;2022-10-31T09:18:13;9.47;;;5.90;;
10882;SDS011;5494;51.796;10.952;2022-10-31T09:20:58;13.77;;;8.40;;
10882;SDS011;5494;51.796;10.952;2022-10-31T09:23:29;13.73;;;9.40;;
10882;SDS011;5494;51.796;10.952;2022-10-31T09:26:00;8.63;;;5.33;;
10882;SDS011;5494;51.796;10.952;2022-10-31T09:28:32;7.90;;;5.70;;
10882;SDS011;5494;51.796;10.952;2022-10-31T09:31:07;9.97;;;6.63;;
10882;SDS011;5494;51.796;10.952;2022-10-31T09:34:01;7.67;;;4.83;;
10882;SDS011;5494;51.796;10.952;2022-10-31T09:36:38;6.17;;;3.90;;
10882;SDS011;5494;51.796;10.952;2022-10-31T09:39:11;8.30;;;3.87;;
10882;SDS011;5494;51.796;10.952;2022-10-31T09:41:49;9.57;;;4.53;;
10882;SDS011;5494;51.796;10.952;2022-10-31T09:44:51;7.57;;;5.17;;
10882;SDS011;5494;51.796;10.952;2022-10-31T09:47:39;7.40;;;5.23;;
10882;SDS011;5494;51.796;10.952;2022-10-31T09:50:33;8.63;;;5.23;;
10882;SDS011;5494;51.796;10.952;2022-10-31T09:53:34;8.50;;;3.90;;
10882;SDS011;5494;51.796;10.952;2022-10-31T09:56:11;8.60;;;4.63;;
10882;SDS011;5494;51.796;10.952;2022-10-31T09:58:44;7.60;;;4.77;;
10882;SDS011;5494;51.796;10.952;2022-10-31T10:01:25;5.43;;;4.13;;
10882;SDS011;5494;51.796;10.952;2022-10-31T10:04:04;11.47;;;4.40;;
10882;SDS011;5494;51.796;10.952;2022-10-31T10:07:14;6.47;;;3.73;;
10882;SDS011;5494;51.796;10.952;2022-10-31T10:10:14;4.40;;;2.77;;
10882;SDS011;5494;51.796;10.952;2022-10-31T10:13:17;4.40;;;2.73;;
10882;SDS011;5494;51.796;10.952;2022-10-31T10:16:14;8.90;;;4.37;;
10882;SDS011;5494;51.796;10.952;2022-10-31T10:19:04;11.87;;;5.27;;
10882;SDS011;5494;51.796;10.952;2022-10-31T10:21:56;6.87;;;3.90;;
10882;SDS011;5494;51.796;10.952;2022-10-31T10:24:42;7.70;;;5.53;;
10882;SDS011;5494;51.796;10.952;2022-10-31T10:27:39;6.87;;;4.37;;
10882;SDS011;5494;51.796;10.952;2022-10-31T10:30:18;9.07;;;4.07;;
10882;SDS011;5494;51.796;10.952;2022-10-31T10:32:50;6.50;;;3.70;;
10882;SDS011;5494;51.796;10.952;2022-10-31T10:35:25;9.93;;;3.57;;
10882;SDS011;5494;51.796;10.952;2022-10-31T10:38:02;4.63;;;3.03;;
10882;SDS011;5494;51.796;10.952;2022-10-31T10:40:44;4.33;;;2.90;;
10882;SDS011;5494;51.796;10.952;2022-10-31T10:43:20;6.00;;;3.20;;
10882;SDS011;5494;51.796;10.952;2022-10-31T10:46:04;4.53;;;3.20;;
10882;SDS011;5494;51.796;10.952;2022-10-31T10:49:10;6.40;;;3.67;;
10882;SDS011;5494;51.796;10.952;2022-10-31T10:51:45;5.93;;;3.70;;
10882;SDS011;5494;51.796;10.952;2022-10-31T10:54:43;8.60;;;4.23;;
10882;SDS011;5494;51.796;10.952;2022-10-31T10:57:32;6.73;;;4.40;;
10882;SDS011;5494;51.796;10.952;2022-10-31T11:00:19;12.03;;;5.00;;
10882;SDS011;5494;51.796;10.952;2022-10-31T11:02:51;7.73;;;4.97;;
10882;SDS011;5494;51.796;10.952;2022-10-31T11:05:23;8.17;;;4.60;;
10882;SDS011;5494;51.796;10.952;2022-10-31T11:07:58;10.60;;;5.70;;
10882;SDS011;5494;51.796;10.952;2022-10-31T11:10:27;11.27;;;5.27;;
10882;SDS011;5494;51.796;10.952;2022-10-31T11:13:01;7.70;;;4.53;;
10882;SDS011;5494;51.796;10.952;2022-10-31T11:15:53;10.97;;;5.37;;
10882;SDS011;5494;51.796;10.952;2022-10-31T11:18:27;12.67;;;5.23;;
10882;SDS011;5494;51.796;10.952;2022-10-31T11:20:59;7.50;;;4.83;;
10882;SDS011;5494;51.796;10.952;2022-10-31T11:23:31;8.87;;;4.77;;
10882;SDS011;5494;51.796;10.952;2022-10-31T11:26:01;8.43;;;4.67;;
10882;SDS011;5494;51.796;10.952;2022-10-31T11:28:34;7.57;;;4.43;;
10882;SDS011;5494;51.796;10.952;2022-10-31T11:31:07;8.63;;;4.30;;
10882;SDS011;5494;51.796;10.952;2022-10-31T11:33:44;6.70;;;4.33;;
10882;SDS011;5494;51.796;10.952;2022-10-31T11:36:20;7.57;;;4.93;;
10882;SDS011;5494;51.796;10.952;2022-10-31T11:38:52;9.30;;;4.83;;
10882;SDS011;5494;51.796;10.952;2022-10-31T11:41:24;9.77;;;6.07;;
10882;SDS011;5494;51.796;10.952;2022-10-31T11:43:58;9.17;;;5.93;;
10882;SDS011;5494;51.796;10.952;2022-10-31T11:46:34;12.53;;;7.43;;
10882;SDS011;5494;51.796;10.952;2022-10-31T11:49:11;11.73;;;8.37;;
10882;SDS011;5494;51.796;10.952;2022-10-31T11:51:47;14.10;;;8.27;;
10882;SDS011;5494;51.796;10.952;2022-10-31T11:54:20;11.50;;;8.90;;
10882;SDS011;5494;51.796;10.952;2022-10-31T11:56:54;13.20;;;8.73;;
10882;SDS011;5494;51.796;10.952;2022-10-31T11:59:25;15.53;;;8.40;;
10882;SDS011;5494;51.796;10.952;2022-10-31T12:02:00;15.40;;;9.73;;
10882;SDS011;5494;51.796;10.952;2022-10-31T12:04:32;17.20;;;9.77;;
10882;SDS011;5494;51.796;10.952;2022-10-31T12:07:09;21.87;;;8.97;;
10882;SDS011;5494;51.796;10.952;2022-10-31T12:09:38;15.13;;;9.13;;
10882;SDS011;5494;51.796;10.952;2022-10-31T12:15:27;16.73;;;9.93;;
10882;SDS011;5494;51.796;10.952;2022-10-31T12:18:11;16.13;;;9.50;;
10882;SDS011;5494;51.796;10.952;2022-10-31T12:21:23;14.60;;;9.17;;
10882;SDS011;5494;51.796;10.952;2022-10-31T12:24:23;9.93;;;6.27;;
10882;SDS011;5494;51.796;10.952;2022-10-31T12:27:23;9.77;;;6.10;;
10882;SDS011;5494;51.796;10.952;2022-10-31T12:30:12;14.37;;;7.43;;
10882;SDS011;5494;51.796;10.952;2022-10-31T12:32:54;15.37;;;8.60;;
10882;SDS011;5494;51.796;10.952;2022-10-31T12:35:52;15.83;;;8.77;;
10882;SDS011;5494;51.796;10.952;2022-10-31T12:38:44;14.27;;;9.70;;
10882;SDS011;5494;51.796;10.952;2022-10-31T12:41:39;16.30;;;8.73;;
10882;SDS011;5494;51.796;10.952;2022-10-31T12:44:33;15.07;;;8.77;;
10882;SDS011;5494;51.796;10.952;2022-10-31T12:47:28;16.40;;;9.07;;
10882;SDS011;5494;51.796;10.952;2022-10-31T12:50:27;16.27;;;10.50;;
10882;SDS011;5494;51.796;10.952;2022-10-31T12:53:17;23.60;;;12.33;;
10882;SDS011;5494;51.796;10.952;2022-10-31T12:56:06;22.20;;;12.80;;
10882;SDS011;5494;51.796;10.952;2022-10-31T12:58:52;22.13;;;13.07;;
10882;SDS011;5494;51.796;10.952;2022-10-31T13:01:29;23.43;;;14.67;;
10882;SDS011;5494;51.796;10.952;2022-10-31T13:04:05;22.23;;;13.20;;
10882;SDS011;5494;51.796;10.952;2022-10-31T13:06:48;24.70;;;14.00;;
10882;SDS011;5494;51.796;10.952;2022-10-31T13:09:25;26.77;;;16.47;;
10882;SDS011;5494;51.796;10.952;2022-10-31T13:12:02;32.93;;;17.10;;
10882;SDS011;5494;51.796;10.952;2022-10-31T13:14:39;26.60;;;17.13;;
10882;SDS011;5494;51.796;10.952;2022-10-31T13:17:11;30.40;;;17.17;;
10882;SDS011;5494;51.796;10.952;2022-10-31T13:19:53;30.13;;;18.20;;
10882;SDS011;5494;51.796;10.952;2022-10-31T13:22:43;28.20;;;16.33;;
10882;SDS011;5494;51.796;10.952;2022-10-31T13:25:19;24.80;;;15.53;;
10882;SDS011;5494;51.796;10.952;2022-10-31T13:27:54;27.87;;;14.60;;
10882;SDS011;5494;51.796;10.952;2022-10-31T13:30:27;27.63;;;15.03;;
10882;SDS011;5494;51.796;10.952;2022-10-31T13:33:01;28.30;;;15.20;;
10882;SDS011;5494;51.796;10.952;2022-10-31T13:35:38;30.00;;;17.80;;
10882;SDS011;5494;51.796;10.952;2022-10-31T13:38:22;32.20;;;17.83;;
10882;SDS011;5494;51.796;10.952;2022-10-31T13:41:02;32.67;;;18.73;;
10882;SDS011;5494;51.796;10.952;2022-10-31T13:43:43;33.00;;;18.77;;
10882;SDS011;5494;51.796;10.952;2022-10-31T13:46:34;32.57;;;17.87;;
10882;SDS011;5494;51.796;10.952;2022-10-31T13:49:21;34.63;;;18.40;;
10882;SDS011;5494;51.796;10.952;2022-10-31T13:52:12;31.87;;;17.67;;
10882;SDS011;5494;51.796;10.952;2022-10-31T13:54:46;32.77;;;18.80;;
10882;SDS011;5494;51.796;10.952;2022-10-31T13:57:25;30.57;;;18.23;;
10882;SDS011;5494;51.796;10.952;2022-10-31T14:00:03;37.57;;;20.73;;
10882;SDS011;5494;51.796;10.952;2022-10-31T14:02:49;35.37;;;20.07;;
10882;SDS011;5494;51.796;10.952;2022-10-31T14:05:22;35.97;;;20.17;;
10882;SDS011;5494;51.796;10.952;2022-10-31T14:07:55;43.73;;;21.23;;
10882;SDS011;5494;51.796;10.952;2022-10-31T14:10:31;39.83;;;21.43;;
10882;SDS011;5494;51.796;10.952;2022-10-31T14:13:04;35.43;;;20.37;;
10882;SDS011;5494;51.796;10.952;2022-10-31T14:15:41;42.60;;;22.20;;
10882;SDS011;5494;51.796;10.952;2022-10-31T14:18:22;39.83;;;22.13;;
10882;SDS011;5494;51.796;10.952;2022-10-31T14:20:56;39.83;;;22.83;;
10882;SDS011;5494;51.796;10.952;2022-10-31T14:23:36;43.03;;;22.60;;
10882;SDS011;5494;51.796;10.952;2022-10-31T14:31:55;40.73;;;22.27;;
10882;SDS011;5494;51.796;10.952;2022-10-31T14:34:39;44.53;;;23.00;;
10882;SDS011;5494;51.796;10.952;2022-10-31T14:40:33;39.37;;;22.97;;
10882;SDS011;5494;51.796;10.952;2022-10-31T14:43:27;36.00;;;22.07;;
10882;SDS011;5494;51.796;10.952;2022-10-31T14:46:25;42.40;;;22.47;;
10882;SDS011;5494;51.796;10.952;2022-10-31T14:49:15;41.07;;;23.20;;
10882;SDS011;5494;51.796;10.952;2022-10-31T14:52:02;39.17;;;23.00;;
10882;SDS011;5494;51.796;10.952;2022-10-31T14:54:38;41.10;;;23.17;;
10882;SDS011;5494;51.796;10.952;2022-10-31T14:57:13;46.00;;;25.63;;
10882;SDS011;5494;51.796;10.952;2022-10-31T14:59:52;42.13;;;24.87;;
10882;SDS011;5494;51.796;10.952;2022-10-31T15:02:30;42.80;;;25.93;;
10882;SDS011;5494;51.796;10.952;2022-10-31T15:05:10;43.43;;;24.63;;
10882;SDS011;5494;51.796;10.952;2022-10-31T15:07:48;53.60;;;28.53;;
10882;SDS011;5494;51.796;10.952;2022-10-31T15:10:20;54.00;;;27.57;;
10882;SDS011;5494;51.796;10.952;2022-10-31T15:12:52;53.83;;;28.77;;
10882;SDS011;5494;51.796;10.952;2022-10-31T15:15:23;53.40;;;29.47;;
10882;SDS011;5494;51.796;10.952;2022-10-31T15:17:55;59.13;;;31.77;;
10882;SDS011;5494;51.796;10.952;2022-10-31T15:20:28;53.97;;;29.70;;
10882;SDS011;5494;51.796;10.952;2022-10-31T15:23:09;59.37;;;30.87;;
10882;SDS011;5494;51.796;10.952;2022-10-31T15:25:43;55.50;;;31.27;;
10882;SDS011;5494;51.796;10.952;2022-10-31T15:28:14;58.07;;;32.30;;
10882;SDS011;5494;51.796;10.952;2022-10-31T15:30:51;59.03;;;32.73;;
10882;SDS011;5494;51.796;10.952;2022-10-31T15:33:23;62.43;;;33.37;;
10882;SDS011;5494;51.796;10.952;2022-10-31T15:36:03;57.13;;;31.70;;
10882;SDS011;5494;51.796;10.952;2022-10-31T15:38:38;62.30;;;32.27;;
10882;SDS011;5494;51.796;10.952;2022-10-31T15:41:19;59.40;;;32.80;;
10882;SDS011;5494;51.796;10.952;2022-10-31T15:43:56;59.73;;;32.73;;
10882;SDS011;5494;51.796;10.952;2022-10-31T15:46:34;56.20;;;29.77;;
10882;SDS011;5494;51.796;10.952;2022-10-31T15:49:03;60.27;;;32.17;;
10882;SDS011;5494;51.796;10.952;2022-10-31T15:51:47;61.67;;;32.63;;
10882;SDS011;5494;51.796;10.952;2022-10-31T15:54:20;61.27;;;33.17;;
10882;SDS011;5494;51.796;10.952;2022-10-31T15:56:49;60.63;;;32.80;;